Molino, Florida
Current Conditions -  °F | °C
As of 11:56 AM on Monday 22 Dec 2014 (Local Time) from KNSE Reporting Station
Overcast Overcast  
Wind Chill: 61°   Ceiling: 500
Heat Index: 61°   Visibility: 10mi
Dew Point: 59°   Wind: 6mph
Humidity: 93%   Direction: 120°ESE
Pressure: 29.83"   Gusts: NA
Location:  30.72°N, 87.31°W
Report Text: KNSE 221756Z 12005KT 10SM BKN005 BKN020 OVC060 16/15 A2983 RMK AO2 SLP089 60004 T01610150 10167 20122 58033 $
Loading
Personal Weather Stations






























Interactive Weather Map New forecast layout! Learn more

10-Day Weather Forecast

Advertisements
Track Severe Weather on mobile